x

Sentry Shoal (46131) Wave Buoy

5:00 - Mon 24th Apr 2017 All times are PDT. -7 hours from GMT.

  • Sig Wave height 0.3ft
  • Peak Period 2s
  • Wind
    4mph, 7mph gusts
  • Sea Temp 49°f
  • Air Temp 46°f
  • Sea Pressure 1007.1mb
  • Sentry Shoal
  • Sentry Shoal

More Historic Weather Station data

Upgrade to MSW Pro to gain access to the past 30 days of data for over 8000 Wavebouys and Weather Stations around the globe.

Join Pro

Comparision Forecast

View Surf forecast
   
lun. 04/24 5:00 0.3ft 2s 4 7 mph 1007.1mb 49f 46f
4:00 0.7ft 2s 2 4 mph 1007.1mb 49f 47f
3:00 0.7ft 2s 4
mph
1007mb 49f 48f
2:00 1ft 2s 9 11 mph 1007mb 49f 49f
1:00 1.3ft 2s 11 13 mph 1007.2mb 50f 49f
12:00 1.6ft 3s 13 18 mph 1007.2mb 49f 49f
dim. 04/23 11:00 2ft 4s 13 16 mph 1007.3mb 50f 49f
10:00 2.5ft 4s 13 16 mph 1007.4mb 50f 49f
9:00 2.5ft 4s 13 16 mph 1007.2mb 49f 50f
8:00 2.5ft 4s 11 13 mph 1007.1mb 49f 50f
7:00 2ft 4s 16 20 mph 1007mb 49f 50f
6:00 2ft 4s 9 11 mph 1007.4mb 50f 51f
5:00 1.6ft 4s 11 13 mph 1007.5mb 50f 51f
4:00 1.6ft 4s 11 16 mph 1008.1mb 50f 50f
3:00 2ft 3s 11 13 mph 1008.5mb 50f 50f
2:00 1.6ft 3s 9 13 mph 1009.1mb 50f 50f
1:00 1.6ft 3s 13 16 mph 1009.4mb 50f 50f
12:00 2ft 4s 13 16 mph 1010mb 50f 50f
11:00 2ft 4s 11 13 mph 1010.6mb 50f 50f
10:00 2ft 4s 16 18 mph 1010.5mb 49f 50f
9:00 2ft 4s 13 16 mph 1010.6mb 49f 50f
8:00 2ft 3s 11 13 mph 1010.7mb 49f 49f
7:00 2ft 3s 13 16 mph 1010.7mb 49f 50f
6:00 2.5ft 4s 13 16 mph 1010.8mb 49f 50f
5:00 3ft 4s 18 22 mph 1010.6mb 49f 50f
4:00 2.5ft 4s 18 20 mph 1010.7mb 49f 50f
3:00 3ft 4s 18 22 mph 1010.6mb 49f 50f
2:00 3.5ft 4s 22 27 mph 1010.7mb 49f 51f
1:00 3ft 4s 20 25 mph 1010.7mb 49f 51f
12:00 3ft 4s 18 22 mph 1010.5mb 49f 51f
sam. 04/22 11:00 3.5ft 4s 20 25 mph 1010mb 49f 51f
10:00 3.5ft 5s 22 25 mph 1009.5mb 49f 51f
9:00 4.5ft 5s 25 27 mph 1008.6mb 49f 51f
8:00 5ft 5s 27 31 mph 1007.6mb 50f 52f
7:00 2.5ft 3s 27 34 mph 1007.1mb 50f 52f
6:00 2ft 3s 16 20 mph 1007.8mb 51f 51f
5:00 2ft 3s 20 25 mph 1008.1mb 50f 51f
4:00 2ft 3s 18 20 mph 1008.5mb 51f 50f
3:00 0.7ft 2s 18 20 mph 1008.7mb 51f 51f
2:00 0.3ft 4s 9 13 mph 1008.6mb 52f 51f
1:00 0.3ft 2s 2 4 mph 1007.9mb 52f 51f
12:00 0.3ft 3s  -  2 mph 1008mb 52f 50f
11:00 0.3ft 3s 2 4 mph 1008mb 52f 50f
10:00 0.3ft 3s 4
mph
1008.1mb 51f 49f
9:00 0.3ft 4s 4 7 mph 1008.6mb 51f 49f
8:00 0.3ft 4s 4
mph
1009.2mb 51f 50f
7:00 0.3ft 4s 7
mph
1010mb 51f 49f
6:00 0.3ft 4s 4 7 mph 1011mb 51f 49f
5:00  -  3s 7 9 mph 1011.7mb 51f 49f
4:00 0.3ft 3s 2 4 mph 1012.8mb 50f 50f
3:00 0.3ft 3s 4
mph
1013.8mb 50f 50f
2:00 0.3ft 3s 4 7 mph 1014.5mb 50f 50f
1:00 0.3ft 3s 7
mph
1015.2mb 50f 50f
12:00 0.3ft 3s 7 9 mph 1016.5mb 50f 51f
ven. 04/21 11:00 0.3ft 2s 7 9 mph 1017.7mb 51f 51f
10:00  -  2s 2 4 mph 1018.8mb 51f 52f
9:00 0.3ft 2s 4
mph
1019.7mb 51f 53f
8:00 0.3ft 2s 4
mph
1020.2mb 52f 53f
7:00 0.3ft 2s 4 7 mph 1021mb 53f 54f
6:00 0.3ft 2s 4 7 mph 1022mb 53f 55f
5:00 0.3ft 2s 4
mph
1023.2mb 53f 54f
4:00 0.3ft 2s 4
mph
1024.3mb 53f 52f
3:00 0.3ft 2s 7 9 mph 1025.7mb 52f 52f
2:00 0.3ft 2s 9 11 mph 1026.9mb 52f 51f
1:00 0.3ft 3s 9
mph
1027.7mb 51f 51f
12:00 0.3ft 3s 9
mph
1028.4mb 51f 50f
11:00 0.3ft 2s 9
mph
1028.9mb 51f 49f
10:00 0.3ft 2s 9 11 mph 1029.6mb 51f 49f
9:00 0.7ft 2s 2 4 mph 1030.1mb 50f 48f
8:00 0.7ft 2s 11 13 mph 1029.7mb 50f 49f
7:00 0.3ft 2s  -  2 mph 1029.8mb 50f 47f
6:00 0.3ft 2s 4
mph
1029.6mb 50f 48f
5:00 0.7ft 2s 7
mph
1029.3mb 50f 49f
4:00 0.7ft 2s 7
mph
1029mb 49f 48f
3:00 0.7ft 2s 7 9 mph 1028.9mb 49f 49f
2:00 0.7ft 2s 11 13 mph 1028.6mb 49f 50f
1:00 0.7ft 2s 4 7 mph 1028.5mb 49f 50f
12:00 0.3ft 2s 9 11 mph 1027.9mb 49f 50f
jeu. 04/20 11:00 0.3ft 4s 7 9 mph 1027.7mb 49f 50f
10:00 0.3ft 2s 4
mph
1027.5mb 49f 50f
9:00 0.3ft 2s 7
mph
1026.8mb 50f 50f
8:00 0.3ft 2s 9 11 mph 1025.8mb 50f 51f
7:00 0.3ft 3s 7 9 mph 1025.3mb 50f 51f
6:00 0.3ft 2s 7
mph
1024.9mb 51f 51f
5:00 0.3ft 2s 7
mph
1024.7mb 51f 51f
4:00 0.3ft 2s 2 4 mph 1024.5mb 53f 51f
3:00 0.3ft 3s 4
mph
1024.2mb 53f 51f
2:00 0.3ft 3s 2 4 mph 1023.7mb 53f 50f